Terminal Aerodrome Forecast
Issued by NWS

Home | Current Version | Previous Version | Text Only | Print | Product List | Glossary On
Versions: 1 2 3 4 5 6 7 8 9 10 11 12 13 14 15 16 17 18 19 20 21 22 23 24 25 26 27 28
000
FTUS45 KPSR 240851 AAA
TAFPHX
TAF AMD
KPHX 240851Z 2409/2506 26010KT P6SM VCSH FEW040 BKN080
      TEMPO 2409/2412 SCT040 BKN050 BKN080
     FM241400 15005KT P6SM SCT040
     FM242100 25008KT P6SM BKN070=

USA.gov is the U.S. government's official web portal to all federal, state and local government web resources and services.